Time;durP1;ratioP1;P1;durP2;ratioP2;P2;SDS_P1;SDS_P2;PMS_P1;PMS_P2;Temp;Humidity;BMP_temperature;BMP_pressure;BME280_temperature;BME280_humidity;BME280_pressure;Samples;Min_cycle;Max_cycle;Signal;HPM_P1;HPM_P2
2021/12/15 00:00:10;;;;;;;61.50;22.98;;;;;;;-4.47;100.00;100356.25;4881174;29;20059;-63
2021/12/15 00:02:38;;;;;;;58.20;21.00;;;;;;;-4.45;100.00;100354.44;4898453;29;20061;-64
2021/12/15 00:05:06;;;;;;;65.60;22.00;;;;;;;-4.38;100.00;100358.66;4881538;29;20063;-63
2021/12/15 00:07:33;;;;;;;61.22;22.27;;;;;;;-4.44;100.00;100358.81;4898188;29;20060;-63
2021/12/15 00:09:58;;;;;;;63.03;23.85;;;;;;;-4.45;100.00;100362.38;4898262;29;20513;-64
2021/12/15 00:12:25;;;;;;;61.03;22.15;;;;;;;-4.48;100.00;100355.38;4865274;29;20085;-63
2021/12/15 00:14:51;;;;;;;64.43;21.45;;;;;;;-4.39;100.00;100364.81;4881109;29;20060;-63
2021/12/15 00:17:17;;;;;;;69.20;23.88;;;;;;;-4.39;100.00;100368.34;4881153;29;20107;-66
2021/12/15 00:19:44;;;;;;;71.88;23.35;;;;;;;-4.37;100.00;100363.03;4849788;29;20060;-64
2021/12/15 00:22:10;;;;;;;59.25;22.13;;;;;;;-4.72;100.00;100311.16;4881147;29;20457;-64
2021/12/15 00:24:36;;;;;;;58.70;22.00;;;;;;;-4.63;100.00;100318.84;4863974;29;20052;-64
2021/12/15 00:27:02;;;;;;;58.17;20.92;;;;;;;-4.43;100.00;100345.56;4897731;29;20057;-64
2021/12/15 00:29:28;;;;;;;59.55;21.67;;;;;;;-4.42;100.00;100335.91;4897811;29;20060;-65
2021/12/15 00:31:54;;;;;;;59.60;21.77;;;;;;;-4.49;100.00;100322.00;4864890;29;20075;-65
2021/12/15 00:34:20;;;;;;;64.95;22.13;;;;;;;-4.33;100.00;100337.44;4865418;29;20143;-65
2021/12/15 00:36:47;;;;;;;76.00;23.50;;;;;;;-4.34;100.00;100341.84;4880601;29;20476;-64
2021/12/15 00:39:16;;;;;;;64.65;22.02;;;;;;;-4.33;100.00;100343.56;4896200;29;20584;-62
2021/12/15 00:41:42;;;;;;;64.22;23.38;;;;;;;-4.38;100.00;100350.75;4897650;29;20057;-65
2021/12/15 00:44:11;;;;;;;61.90;23.33;;;;;;;-4.50;100.00;100329.94;4897146;29;20374;-65
2021/12/15 00:46:37;;;;;;;71.57;24.25;;;;;;;-4.40;100.00;100357.81;4864972;29;20533;-65
2021/12/15 00:49:04;;;;;;;71.43;26.67;;;;;;;-4.47;100.00;100340.41;4897437;29;20056;-65
2021/12/15 00:51:30;;;;;;;65.70;23.95;;;;;;;-4.53;100.00;100336.19;4864777;29;20063;-64
2021/12/15 00:53:56;;;;;;;62.00;21.92;;;;;;;-4.50;100.00;100335.22;4880312;29;20060;-64
2021/12/15 00:56:22;;;;;;;63.72;23.48;;;;;;;-4.48;100.00;100341.34;4880275;29;20401;-64
2021/12/15 00:58:49;;;;;;;66.55;23.38;;;;;;;-4.51;100.00;100344.03;4880172;29;20079;-64
2021/12/15 01:01:16;;;;;;;66.03;22.40;;;;;;;-4.42;100.00;100343.81;4880590;29;20123;-65
2021/12/15 01:03:41;;;;;;;64.38;23.58;;;;;;;-4.72;100.00;100297.97;4864528;29;20569;-64
2021/12/15 01:06:11;;;;;;;62.28;24.58;;;;;;;-4.43;100.00;100342.94;4865489;29;20089;-64
2021/12/15 01:08:42;;;;;;;73.15;26.75;;;;;;;-4.48;100.00;100339.56;4896970;29;20055;-65
2021/12/15 01:11:24;;;;;;;64.90;22.55;;;;;;;-4.49;100.00;100326.41;4881611;29;20056;-64
2021/12/15 01:22:11;;;;;;;68.13;24.58;;;;;;;-4.42;100.00;100322.72;4895550;29;20063;-63
2021/12/15 01:24:37;;;;;;;66.63;24.20;;;;;;;-4.50;100.00;100324.66;4864183;29;20092;-63
2021/12/15 01:27:04;;;;;;;76.10;24.63;;;;;;;-4.55;100.00;100316.00;4879682;29;20060;-63
2021/12/15 01:29:29;;;;;;;70.25;23.02;;;;;;;-4.47;100.00;100308.75;4896670;29;20063;-63
2021/12/15 01:31:55;;;;;;;76.85;26.20;;;;;;;-4.53;100.00;100304.53;4879584;29;20117;-62
2021/12/15 01:34:21;;;;;;;82.68;25.05;;;;;;;-4.72;100.00;100275.09;4879663;29;20056;-63
2021/12/15 01:36:47;;;;;;;73.88;24.85;;;;;;;-4.48;100.00;100307.03;4879017;29;20061;-64
2021/12/15 01:39:13;;;;;;;69.95;23.48;;;;;;;-4.50;100.00;100304.41;4879504;29;20139;-64
2021/12/15 01:41:39;;;;;;;70.00;25.42;;;;;;;-4.61;100.00;100285.38;4879658;29;20064;-64
2021/12/15 01:46:57;;;;;;;75.55;27.27;;;;;;;-4.74;100.00;100276.94;4896552;29;20060;-62
2021/12/15 01:49:26;;;;;;;75.38;25.83;;;;;;;-4.56;100.00;100304.59;4879580;29;20071;-63
2021/12/15 01:51:53;;;;;;;77.47;27.15;;;;;;;-4.55;100.00;100300.19;4863879;29;20063;-64
2021/12/15 01:54:22;;;;;;;79.20;26.92;;;;;;;-4.53;100.00;100298.34;4895911;29;20072;-64
2021/12/15 01:56:48;;;;;;;67.18;25.40;;;;;;;-4.53;100.00;100303.63;4879244;29;20470;-63
2021/12/15 01:59:16;;;;;;;84.15;26.17;;;;;;;-4.51;100.00;100296.56;4879188;29;20108;-64
2021/12/15 02:01:42;;;;;;;77.68;25.30;;;;;;;-4.48;100.00;100292.06;4879246;29;20064;-63
2021/12/15 02:04:08;;;;;;;80.55;26.33;;;;;;;-4.51;100.00;100291.28;4895951;29;20112;-63
2021/12/15 02:06:35;;;;;;;86.53;26.63;;;;;;;-4.47;100.00;100299.06;4863713;29;20175;-64
2021/12/15 02:09:01;;;;;;;81.82;27.33;;;;;;;-4.51;100.00;100296.56;4878902;29;20143;-63
2021/12/15 02:11:27;;;;;;;76.70;25.17;;;;;;;-4.51;100.00;100302.69;4895817;29;20083;-65
2021/12/15 02:13:53;;;;;;;71.82;25.00;;;;;;;-4.49;100.00;100307.94;4895682;29;20148;-64
2021/12/15 02:16:20;;;;;;;75.43;26.00;;;;;;;-4.49;100.00;100300.03;4895861;29;20527;-63
2021/12/15 02:18:46;;;;;;;71.10;24.40;;;;;;;-4.46;100.00;100299.94;4863200;29;20044;-65
2021/12/15 02:21:16;;;;;;;75.43;25.70;;;;;;;-4.47;100.00;100298.19;4878687;29;20143;-63
2021/12/15 02:23:47;;;;;;;75.75;25.60;;;;;;;-4.45;100.00;100293.75;4878485;29;20048;-62
2021/12/15 02:26:20;;;;;;;81.97;25.42;;;;;;;-4.45;100.00;100299.03;4878734;29;20059;-62
2021/12/15 02:28:54;;;;;;;67.07;24.30;;;;;;;-4.47;100.00;100303.47;4878568;29;20104;-64
2021/12/15 02:39:19;;;;;;;67.18;22.42;;;;;;;-4.44;100.00;100303.41;4895609;29;20076;-64
2021/12/15 02:41:46;;;;;;;80.13;28.05;;;;;;;-4.58;100.00;100285.28;4878191;29;20444;-63
2021/12/15 02:44:17;;;;;;;78.82;25.42;;;;;;;-4.48;100.00;100301.75;4862930;29;20405;-64
2021/12/15 02:46:44;;;;;;;73.47;23.48;;;;;;;-4.50;100.00;100293.88;4895149;29;20382;-63
2021/12/15 02:49:13;;;;;;;85.65;28.65;;;;;;;-4.50;100.00;100293.00;4877735;29;20123;-64
2021/12/15 02:51:41;;;;;;;80.63;27.15;;;;;;;-4.56;100.00;100283.50;4895365;29;20048;-63
2021/12/15 02:54:11;;;;;;;76.85;24.70;;;;;;;-4.42;100.00;100301.59;4878336;29;20489;-63
2021/12/15 02:56:37;;;;;;;77.85;25.77;;;;;;;-4.43;100.00;100300.72;4878117;29;20061;-64
2021/12/15 02:59:06;;;;;;;79.53;25.65;;;;;;;-4.45;100.00;100291.13;4878491;29;20374;-64
2021/12/15 03:01:58;;;;;;;70.57;24.92;;;;;;;-4.57;100.00;100267.69;4862829;29;20055;-63
2021/12/15 03:04:31;;;;;;;76.18;25.70;;;;;;;-4.46;100.00;100289.38;4878148;29;20402;-65
2021/12/15 03:07:18;;;;;;;86.38;26.90;;;;;;;-4.47;100.00;100287.66;4893540;29;20509;-64
2021/12/15 03:17:43;;;;;;;67.13;22.23;;;;;;;-4.49;100.00;100279.78;4893299;29;20394;-65
2021/12/15 03:20:11;;;;;;;90.72;29.80;;;;;;;-4.63;100.00;100253.78;4877917;29;20182;-64
2021/12/15 03:22:37;;;;;;;92.57;29.20;;;;;;;-4.58;100.00;100260.69;4862035;29;20056;-64
2021/12/15 03:25:04;;;;;;;94.97;30.33;;;;;;;-4.52;100.00;100265.81;4894584;29;20060;-65
2021/12/15 03:33:27;;;;;;;89.78;31.23;;;;;;;-4.53;100.00;100269.34;4895116;29;20056;-65
2021/12/15 03:36:01;;;;;;;76.70;23.88;;;;;;;-4.46;100.00;100270.91;4894702;29;20148;-63
2021/12/15 03:38:29;;;;;;;79.10;25.30;;;;;;;-4.43;100.00;100268.19;4894928;29;20132;-64
2021/12/15 03:40:55;;;;;;;82.50;26.50;;;;;;;-4.38;100.00;100269.81;4862297;29;20092;-64
2021/12/15 03:43:22;;;;;;;86.18;27.88;;;;;;;-4.39;100.00;100269.81;4877714;29;20056;-63
2021/12/15 03:46:04;;;;;;;90.20;28.77;;;;;;;-4.32;100.00;100281.94;4877889;29;20057;-65
2021/12/15 03:48:33;;;;;;;74.43;24.48;;;;;;;-4.33;100.00;100274.94;4878242;29;20061;-62
2021/12/15 03:50:59;;;;;;;81.95;25.63;;;;;;;-4.42;100.00;100259.38;4877465;29;20430;-62
2021/12/15 03:53:26;;;;;;;80.55;25.88;;;;;;;-4.31;100.00;100273.16;4877545;29;20509;-64
2021/12/15 03:55:52;;;;;;;72.28;26.33;;;;;;;-4.49;100.00;100244.63;4894577;29;20064;-65
2021/12/15 03:58:22;;;;;;;84.70;25.10;;;;;;;-4.32;100.00;100276.66;4894272;29;20528;-65
2021/12/15 04:00:52;;;;;;;76.07;24.15;;;;;;;-4.29;100.00;100279.22;4890474;29;20403;-65
2021/12/15 04:03:29;;;;;;;70.07;23.55;;;;;;;-4.28;100.00;100280.94;4865633;29;20457;-67
2021/12/15 04:05:58;;;;;;;87.53;27.75;;;;;;;-4.30;100.00;100266.94;4893523;29;20056;-65
2021/12/15 04:08:24;;;;;;;81.95;25.45;;;;;;;-4.29;100.00;100270.44;4893935;29;20257;-67
2021/12/15 04:10:50;;;;;;;96.05;28.05;;;;;;;-4.25;100.00;100265.03;4896352;29;20068;-65
2021/12/15 04:13:16;;;;;;;73.90;24.55;;;;;;;-4.23;100.00;100263.22;4856597;29;20071;-65
2021/12/15 04:15:46;;;;;;;74.97;25.27;;;;;;;-4.30;100.00;100243.19;4846724;29;20059;-66
2021/12/15 04:18:12;;;;;;;77.15;22.63;;;;;;;-4.20;100.00;100249.94;4877642;29;20068;-65
2021/12/15 04:20:51;;;;;;;79.47;25.23;;;;;;;-4.14;100.00;100255.03;4879715;29;20517;-66
2021/12/15 04:23:20;;;;;;;80.80;26.75;;;;;;;-4.19;100.00;100256.09;4894640;29;20041;-69
2021/12/15 04:25:54;;;;;;;86.20;24.83;;;;;;;-4.22;100.00;100245.63;4864726;29;20076;-66
2021/12/15 04:28:50;;;;;;;79.53;23.98;;;;;;;-4.15;100.00;100253.31;4880739;29;20426;-66
2021/12/15 04:31:43;;;;;;;77.65;22.85;;;;;;;-4.19;100.00;100246.41;4849202;29;20052;-67
2021/12/15 04:34:15;;;;;;;79.32;22.38;;;;;;;-4.45;100.00;100193.50;4896219;29;20079;-66
2021/12/15 04:36:53;;;;;;;78.35;23.27;;;;;;;-4.18;100.00;100242.84;4866981;29;20053;-66
2021/12/15 04:39:47;;;;;;;68.70;20.45;;;;;;;-4.20;100.00;100242.03;4882861;29;20060;-66
2021/12/15 04:42:18;;;;;;;69.60;21.63;;;;;;;-4.30;100.00;100227.38;4866822;29;20048;-66
2021/12/15 04:44:55;;;;;;;79.32;23.88;;;;;;;-4.15;100.00;100242.75;4866660;29;20168;-66
2021/12/15 04:47:25;;;;;;;65.38;21.58;;;;;;;-4.11;100.00;100243.53;4883361;29;20139;-66
2021/12/15 04:49:57;;;;;;;67.00;20.77;;;;;;;-4.03;100.00;100230.09;4882256;29;20138;-66
2021/12/15 04:52:28;;;;;;;67.35;21.70;;;;;;;-4.13;100.00;100225.09;4834062;29;20059;-66
2021/12/15 04:54:55;;;;;;;59.22;19.67;;;;;;;-4.18;100.00;100216.44;4880793;29;20606;-66
2021/12/15 04:57:21;;;;;;;62.15;19.38;;;;;;;-4.05;100.00;100232.81;4898148;29;20516;-66
2021/12/15 04:59:47;;;;;;;61.75;20.42;;;;;;;-4.12;100.00;100226.84;4865412;29;20063;-66
2021/12/15 05:02:15;;;;;;;70.28;20.92;;;;;;;-4.10;100.00;100234.69;4865716;29;20057;-67
2021/12/15 05:04:41;;;;;;;62.85;20.85;;;;;;;-4.09;100.00;100231.16;4864548;29;20064;-66
2021/12/15 05:07:07;;;;;;;56.65;18.20;;;;;;;-4.07;100.00;100225.81;4880768;29;20579;-66
2021/12/15 05:09:33;;;;;;;55.20;17.08;;;;;;;-4.05;100.00;100242.50;4865569;29;20181;-66
2021/12/15 05:11:59;;;;;;;60.63;19.13;;;;;;;-4.04;100.00;100241.59;4880067;29;20139;-67
2021/12/15 05:14:25;;;;;;;51.83;16.60;;;;;;;-4.01;100.00;100254.69;4880702;29;20429;-66
2021/12/15 05:16:53;;;;;;;54.88;17.75;;;;;;;-4.01;100.00;100254.69;4864637;29;20461;-66
2021/12/15 05:19:20;;;;;;;63.20;19.00;;;;;;;-3.96;100.00;100263.34;4880529;29;20123;-67
2021/12/15 05:21:50;;;;;;;53.83;16.42;;;;;;;-3.99;100.00;100242.31;4864975;29;20116;-67
2021/12/15 05:24:30;;;;;;;55.53;17.08;;;;;;;-3.98;100.00;100238.78;4864799;29;20151;-67
2021/12/15 05:27:01;;;;;;;50.88;15.32;;;;;;;-3.92;100.00;100234.16;4896781;29;20083;-67
2021/12/15 05:29:28;;;;;;;55.17;16.42;;;;;;;-3.91;100.00;100235.03;4864307;29;20052;-67
2021/12/15 05:31:56;;;;;;;53.67;16.95;;;;;;;-3.88;100.00;100229.63;4864308;29;20088;-66
2021/12/15 05:34:22;;;;;;;54.40;16.35;;;;;;;-3.93;100.00;100221.00;4879968;29;20095;-66
2021/12/15 05:36:50;;;;;;;51.05;15.60;;;;;;;-3.84;100.00;100235.69;4850197;29;20052;-67
2021/12/15 05:39:18;;;;;;;44.85;15.43;;;;;;;-3.86;100.00;100226.97;4865482;29;20060;-67
2021/12/15 05:41:43;;;;;;;47.55;15.88;;;;;;;-3.94;100.00;100214.84;4850183;29;20048;-67
2021/12/15 05:44:12;;;;;;;53.83;16.13;;;;;;;-4.02;100.00;100206.31;4880233;29;20060;-67
2021/12/15 05:46:38;;;;;;;44.88;15.68;;;;;;;-3.91;100.00;100225.34;4864476;29;20100;-66
2021/12/15 05:49:05;;;;;;;57.28;16.45;;;;;;;-3.85;100.00;100232.19;4864044;29;20200;-67
2021/12/15 05:51:31;;;;;;;49.03;15.70;;;;;;;-3.88;100.00;100224.34;4848756;29;20060;-67
2021/12/15 05:53:57;;;;;;;55.33;15.15;;;;;;;-3.84;100.00;100215.44;4864189;29;20072;-67
2021/12/15 05:56:24;;;;;;;48.25;15.30;;;;;;;-3.78;100.00;100233.75;4864585;29;20417;-66
2021/12/15 05:58:51;;;;;;;56.35;17.83;;;;;;;-3.78;100.00;100225.81;4879623;29;20072;-67
2021/12/15 06:01:18;;;;;;;55.15;17.23;;;;;;;-3.82;100.00;100218.91;4848475;29;20052;-66
2021/12/15 06:03:44;;;;;;;59.08;18.70;;;;;;;-3.80;100.00;100230.28;4896361;29;20064;-67
2021/12/15 06:06:10;;;;;;;59.65;19.40;;;;;;;-4.03;100.00;100203.69;4864277;29;20064;-66
2021/12/15 06:08:36;;;;;;;63.50;20.13;;;;;;;-3.95;100.00;100228.09;4864221;29;20056;-65
2021/12/15 06:11:03;;;;;;;72.93;21.20;;;;;;;-4.12;100.00;100203.06;4863702;29;20088;-66
2021/12/15 06:13:29;;;;;;;75.47;23.27;;;;;;;-3.99;100.00;100226.47;4896400;29;20473;-66
2021/12/15 06:15:57;;;;;;;69.95;20.60;;;;;;;-3.98;100.00;100222.94;4879420;29;20056;-66
2021/12/15 06:18:24;;;;;;;76.15;21.95;;;;;;;-3.94;100.00;100240.41;4879205;29;20075;-66
2021/12/15 06:20:52;;;;;;;67.95;22.13;;;;;;;-3.97;100.00;100243.13;4895982;29;20182;-67
2021/12/15 06:23:20;;;;;;;73.38;20.23;;;;;;;-3.99;100.00;100242.31;4879106;29;20429;-66
2021/12/15 06:25:55;;;;;;;67.45;19.63;;;;;;;-3.95;100.00;100233.38;4864576;29;20080;-66
2021/12/15 06:28:22;;;;;;;64.72;19.88;;;;;;;-4.06;100.00;100209.06;4881221;29;20154;-67
2021/12/15 06:30:48;;;;;;;74.15;22.80;;;;;;;-3.86;100.00;100246.31;4879333;29;20049;-67
2021/12/15 06:33:15;;;;;;;71.10;20.35;;;;;;;-3.89;100.00;100233.19;4863815;29;20064;-66
2021/12/15 06:35:42;;;;;;;72.18;20.08;;;;;;;-4.00;100.00;100216.81;4864867;29;20049;-66
2021/12/15 06:38:08;;;;;;;76.57;22.30;;;;;;;-3.98;100.00;100231.72;4864430;29;20103;-66
2021/12/15 06:40:34;;;;;;;73.15;19.85;;;;;;;-3.96;100.00;100215.81;4880001;29;20507;-66
2021/12/15 06:43:01;;;;;;;75.28;21.17;;;;;;;-3.83;100.00;100237.44;4864319;29;20068;-67
2021/12/15 06:45:35;;;;;;;66.95;18.05;;;;;;;-3.73;100.00;100237.13;4849317;29;20053;-67
2021/12/15 06:58:58;;;;;;;74.90;20.42;;;;;;;-3.73;100.00;100237.13;4878831;29;20174;-67
2021/12/15 07:01:24;;;;;;;74.50;20.23;;;;;;;-3.71;100.00;100237.91;4863977;29;20060;-66
2021/12/15 07:03:50;;;;;;;67.97;17.75;;;;;;;-3.82;100.00;100218.03;4863825;29;20061;-66
2021/12/15 07:06:16;;;;;;;60.78;19.10;;;;;;;-3.84;100.00;100210.13;4895775;29;20061;-66
2021/12/15 07:08:42;;;;;;;59.38;17.80;;;;;;;-3.60;100.00;100239.38;4863762;29;20086;-66
2021/12/15 07:11:08;;;;;;;64.68;17.77;;;;;;;-3.72;100.00;100215.06;4878982;29;20433;-66
2021/12/15 07:13:35;;;;;;;67.65;19.90;;;;;;;-3.73;100.00;100208.06;4878626;29;20048;-66
2021/12/15 07:16:04;;;;;;;57.72;17.83;;;;;;;-3.54;100.00;100239.19;4879449;29;20056;-66
2021/12/15 07:18:43;;;;;;;59.75;15.57;;;;;;;-3.50;100.00;100235.53;4895827;29;20177;-66
2021/12/15 07:21:18;;;;;;;60.08;18.17;;;;;;;-3.47;100.00;100240.72;4862978;29;20059;-66
2021/12/15 07:23:45;;;;;;;65.70;19.48;;;;;;;-3.57;100.00;100226.06;4895663;29;20060;-66
2021/12/15 07:26:11;;;;;;;56.70;18.38;;;;;;;-3.50;100.00;100241.69;4848427;29;20142;-66
2021/12/15 07:28:37;;;;;;;55.65;17.02;;;;;;;-3.44;100.00;100245.88;4878208;29;20059;-66
2021/12/15 07:31:03;;;;;;;54.30;17.27;;;;;;;-3.45;100.00;100239.75;4862360;29;20057;-66
2021/12/15 07:33:29;;;;;;;55.75;17.13;;;;;;;-3.41;100.00;100240.50;4878547;29;20052;-66
2021/12/15 07:35:55;;;;;;;52.83;16.08;;;;;;;-3.41;100.00;100245.81;4899101;29;20067;-67
2021/12/15 07:38:21;;;;;;;46.10;14.07;;;;;;;-3.26;100.00;100249.72;4851874;29;20056;-67
2021/12/15 07:40:47;;;;;;;44.03;16.40;;;;;;;-3.47;100.00;100235.44;4881569;29;20055;-66
2021/12/15 07:43:23;;;;;;;51.00;14.68;;;;;;;-3.31;100.00;100249.03;4850857;29;20379;-65
2021/12/15 07:45:53;;;;;;;50.13;17.92;;;;;;;-3.34;100.00;100239.41;4867959;29;20136;-65
2021/12/15 07:48:22;;;;;;;46.42;16.02;;;;;;;-3.41;100.00;100229.94;4851242;29;20084;-66
2021/12/15 07:50:50;;;;;;;51.47;16.63;;;;;;;-3.27;100.00;100248.00;4883159;29;20140;-67
2021/12/15 07:53:18;;;;;;;43.10;15.43;;;;;;;-3.28;100.00;100252.44;4867626;29;20064;-66
2021/12/15 07:55:45;;;;;;;52.42;15.93;;;;;;;-3.22;100.00;100251.34;4882009;29;20048;-67
2021/12/15 07:58:11;;;;;;;49.60;16.40;;;;;;;-3.31;100.00;100236.66;4898679;29;20540;-66
2021/12/15 08:00:39;;;;;;;49.15;16.63;;;;;;;-3.25;100.00;100247.06;4882170;29;20087;-66
2021/12/15 08:03:06;;;;;;;51.80;16.33;;;;;;;-3.53;100.00;100198.63;4866748;29;20128;-66
2021/12/15 08:05:33;;;;;;;50.28;14.63;;;;;;;-3.21;100.00;100243.38;4881935;29;20607;-65
2021/12/15 08:07:58;;;;;;;46.13;16.85;;;;;;;-3.37;100.00;100221.00;4882279;29;20060;-66
2021/12/15 08:10:25;;;;;;;51.60;17.02;;;;;;;-3.41;100.00;100214.94;4866125;29;20060;-66
2021/12/15 08:12:51;;;;;;;56.38;18.08;;;;;;;-3.17;100.00;100245.00;4881358;29;20060;-66
2021/12/15 08:15:18;;;;;;;50.65;15.88;;;;;;;-3.20;100.00;100242.47;4865709;29;20061;-66
2021/12/15 08:17:48;;;;;;;57.13;17.50;;;;;;;-3.15;100.00;100232.59;4882013;29;20051;-66
2021/12/15 08:20:15;;;;;;;51.97;17.67;;;;;;;-3.23;100.00;100229.34;4866925;29;20067;-66
2021/12/15 08:22:41;;;;;;;54.67;18.52;;;;;;;-3.21;100.00;100222.25;4850355;29;20485;-66
2021/12/15 08:25:09;;;;;;;45.20;15.23;;;;;;;-3.05;100.00;100240.22;4865256;29;20052;-67
2021/12/15 08:27:35;;;;;;;52.78;15.68;;;;;;;-3.15;100.00;100221.16;4881201;29;20647;-67
2021/12/15 08:30:02;;;;;;;42.55;15.35;;;;;;;-3.19;100.00;100199.25;4880913;29;20111;-67
2021/12/15 08:32:28;;;;;;;52.92;15.48;;;;;;;-3.29;100.00;100187.28;4881300;29;20052;-67
2021/12/15 08:34:55;;;;;;;47.03;16.20;;;;;;;-2.89;100.00;100244.09;4866859;29;20076;-67
2021/12/15 08:37:20;;;;;;;49.13;16.67;;;;;;;-2.91;100.00;100238.84;4899689;29;20612;-67
2021/12/15 08:39:46;;;;;;;47.35;16.60;;;;;;;-3.23;100.00;100184.41;4882675;29;20061;-67
2021/12/15 08:42:13;;;;;;;48.63;15.13;;;;;;;-2.81;100.00;100242.06;4865992;29;20480;-67
2021/12/15 08:44:39;;;;;;;56.42;15.77;;;;;;;-2.84;100.00;100233.38;4877019;29;20064;-67
2021/12/15 08:47:06;;;;;;;50.97;16.30;;;;;;;-3.33;100.00;100164.47;4876910;29;20060;-67
2021/12/15 08:49:32;;;;;;;44.25;15.00;;;;;;;-3.07;100.00;100208.56;4862391;29;20057;-67
2021/12/15 08:51:57;;;;;;;48.03;16.80;;;;;;;-3.02;100.00;100232.19;4862638;29;20067;-67
2021/12/15 08:54:24;;;;;;;55.58;16.83;;;;;;;-3.02;100.00;100229.56;4862270;29;20148;-67
2021/12/15 08:56:50;;;;;;;48.03;14.95;;;;;;;-3.03;100.00;100236.63;4862643;29;20082;-66
2021/12/15 08:59:16;;;;;;;46.47;14.25;;;;;;;-3.04;100.00;100228.72;4848454;29;20061;-66
2021/12/15 09:01:43;;;;;;;43.55;14.57;;;;;;;-3.02;100.00;100221.63;4864628;29;20494;-67
2021/12/15 09:04:09;;;;;;;47.45;14.05;;;;;;;-2.93;100.00;100232.75;4863345;29;20056;-66
2021/12/15 09:06:36;;;;;;;46.28;14.60;;;;;;;-2.91;100.00;100224.78;4863199;29;20057;-66
2021/12/15 09:09:07;;;;;;;50.15;15.05;;;;;;;-2.74;100.00;100230.34;4877858;29;20147;-66
2021/12/15 09:11:33;;;;;;;46.55;15.00;;;;;;;-2.91;100.00;100208.91;4878299;29;20525;-66
2021/12/15 09:14:00;;;;;;;47.22;16.00;;;;;;;-2.69;100.00;100231.03;4879676;29;20048;-67
2021/12/15 09:16:27;;;;;;;41.70;14.13;;;;;;;-2.90;100.00;100157.72;4862758;29;20060;-68
2021/12/15 09:18:54;;;;;;;43.42;16.52;;;;;;;-2.58;100.00;100211.28;4863760;29;20099;-66
2021/12/15 09:21:23;;;;;;;45.20;13.73;;;;;;;-2.58;100.00;100224.50;4863643;29;20356;-66
2021/12/15 09:23:49;;;;;;;46.83;16.00;;;;;;;-2.49;100.00;100217.09;4848110;29;20053;-66
2021/12/15 09:26:15;;;;;;;43.58;14.57;;;;;;;-2.53;100.00;100190.78;4879300;29;20057;-66
2021/12/15 09:28:41;;;;;;;41.28;12.75;;;;;;;-2.54;100.00;100181.13;4863947;29;20088;-67
2021/12/15 09:31:08;;;;;;;39.60;13.40;;;;;;;-2.42;100.00;100180.69;4861746;29;20072;-66
2021/12/15 09:33:35;;;;;;;44.70;14.30;;;;;;;-2.50;100.00;100190.69;4861515;29;20057;-66
2021/12/15 09:36:03;;;;;;;39.70;13.57;;;;;;;-2.35;100.00;100189.25;4861251;29;20084;-66
2021/12/15 09:38:29;;;;;;;44.00;13.02;;;;;;;-2.43;100.00;100202.78;4877608;29;20052;-66
2021/12/15 09:40:57;;;;;;;42.10;14.20;;;;;;;-2.50;100.00;100198.63;4861926;29;20057;-66
2021/12/15 09:43:27;;;;;;;42.85;13.55;;;;;;;-2.60;100.00;100170.75;4878141;29;20113;-66
2021/12/15 09:46:02;;;;;;;39.92;13.13;;;;;;;-2.43;100.00;100194.84;4847455;29;20498;-66
2021/12/15 10:02:31;;;;;;;40.33;15.02;;;;;;;-2.49;100.00;100168.59;4880065;29;20155;-66
2021/12/15 10:19:28;;;;;;;42.90;14.52;;;;;;;-2.61;100.00;100145.22;4896197;29;20068;-67
2021/12/15 10:22:31;;;;;;;43.58;14.95;;;;;;;-2.53;100.00;100151.09;4864332;29;20056;-67
2021/12/15 10:25:04;;;;;;;50.30;16.45;;;;;;;-2.63;100.00;100155.00;4862246;29;20487;-67
2021/12/15 10:27:47;;;;;;;43.67;13.80;;;;;;;-2.58;100.00;100145.97;4896863;29;20128;-67
2021/12/15 10:30:19;;;;;;;38.22;13.15;;;;;;;-2.69;100.00;100104.03;4849165;29;20088;-67
2021/12/15 10:32:46;;;;;;;51.08;15.57;;;;;;;-2.61;100.00;100118.75;4864722;29;20067;-66
2021/12/15 10:35:23;;;;;;;37.88;13.05;;;;;;;-2.47;100.00;100140.28;4879794;29;20118;-67
2021/12/15 10:38:15;;;;;;;;;;;;;;;-2.47;100.00;100135.84;4865075;29;20076;-67
2021/12/15 10:40:53;;;;;;;38.72;13.80;;;;;;;-2.46;100.00;100142.88;4878258;29;19924;-67
2021/12/15 10:43:20;;;;;;;;;;;;;;;-2.49;100.00;100144.75;4879594;29;20052;-67
2021/12/15 10:45:50;;;;;;;46.88;15.23;;;;;;;-2.57;100.00;100130.97;4879628;29;19931;-67
2021/12/15 10:48:25;;;;;;;42.85;14.43;;;;;;;-2.55;100.00;100139.72;4864322;29;20057;-66
2021/12/15 10:50:52;;;;;;;41.65;14.23;;;;;;;-2.73;100.00;100106.84;4849021;29;20436;-67
2021/12/15 10:53:34;;;;;;;44.10;14.88;;;;;;;-2.64;100.00;100125.03;4863760;29;20057;-67
2021/12/15 10:56:00;;;;;;;45.67;14.68;;;;;;;-2.79;100.00;100096.50;4895400;29;20057;-67
2021/12/15 10:58:41;;;;;;;44.38;14.40;;;;;;;-2.60;100.00;100118.69;4847733;29;20099;-67
2021/12/15 11:01:50;;;;;;;43.85;14.65;;;;;;;-2.74;100.00;100106.00;4878199;29;20068;-66
2021/12/15 11:04:39;;;;;;;41.42;14.73;;;;;;;-2.50;100.00;100135.97;4860683;29;20060;-67
2021/12/15 11:07:05;;;;;;;41.83;14.02;;;;;;;-2.56;100.00;100136.22;4895492;29;20068;-67
2021/12/15 11:09:36;;;;;;;45.40;16.30;;;;;;;-2.51;100.00;100138.69;4894919;29;20063;-66
2021/12/15 11:12:11;;;;;;;46.78;15.30;;;;;;;-2.44;100.00;100129.59;4896003;29;20067;-67
2021/12/15 11:14:40;;;;;;;43.97;15.50;;;;;;;-2.35;100.00;100131.88;4863591;29;20079;-67
2021/12/15 11:17:12;;;;;;;44.90;16.08;;;;;;;-2.32;100.00;100134.41;4878991;29;20064;-67
2021/12/15 11:19:42;;;;;;;44.35;15.90;;;;;;;-2.32;100.00;100134.41;4863898;29;20116;-66
2021/12/15 11:22:39;;;;;;;52.33;18.98;;;;;;;-2.39;100.00;100122.31;4863239;29;20183;-68
2021/12/15 11:25:10;;;;;;;48.97;14.85;;;;;;;-2.57;100.00;100080.69;4897049;29;20363;-67
2021/12/15 11:27:37;;;;;;;46.35;14.40;;;;;;;-2.23;100.00;100123.47;4866699;29;20091;-67
2021/12/15 11:30:06;;;;;;;44.30;14.48;;;;;;;-2.11;100.00;100126.56;4896171;29;20445;-66
2021/12/15 11:32:47;;;;;;;46.42;14.95;;;;;;;-2.20;100.00;100127.78;4865180;29;20505;-67
2021/12/15 11:35:27;;;;;;;41.78;12.35;;;;;;;-2.08;100.00;100121.16;4863634;29;20076;-67
2021/12/15 11:38:00;;;;;;;47.97;14.85;;;;;;;-2.13;100.00;100117.81;4861193;29;20065;-67
2021/12/15 11:40:32;;;;;;;48.08;14.30;;;;;;;-2.09;100.00;100119.41;4846161;29;20079;-68
2021/12/15 11:42:59;;;;;;;40.28;14.40;;;;;;;-2.20;100.00;100128.63;4878056;29;20156;-66
2021/12/15 11:45:25;;;;;;;44.53;14.75;;;;;;;-2.28;100.00;100112.19;4849837;29;20072;-67
2021/12/15 11:47:51;;;;;;;45.25;16.00;;;;;;;-2.15;100.00;100109.09;4849513;29;20088;-67
2021/12/15 11:50:20;;;;;;;48.58;17.13;;;;;;;-2.13;100.00;100131.06;4865561;29;20488;-67
2021/12/15 11:52:49;;;;;;;46.97;16.42;;;;;;;-2.38;100.00;100105.50;4882487;29;20493;-66
2021/12/15 11:55:30;;;;;;;45.03;16.13;;;;;;;-2.29;100.00;100134.31;4880930;29;20062;-67
2021/12/15 11:57:57;;;;;;;42.17;14.50;;;;;;;-2.32;100.00;100134.41;4881622;29;20060;-67
2021/12/15 12:00:27;;;;;;;48.85;16.63;;;;;;;-2.37;100.00;100141.69;4882143;29;20471;-67
2021/12/15 12:02:56;;;;;;;43.03;14.68;;;;;;;-2.44;100.00;100132.25;4867079;29;20057;-66
2021/12/15 12:05:29;;;;;;;41.53;14.45;;;;;;;-2.45;100.00;100133.13;4899149;29;20059;-66
2021/12/15 12:08:07;;;;;;;39.40;14.38;;;;;;;-2.43;100.00;100133.97;4866315;29;20107;-66
2021/12/15 12:10:48;;;;;;;47.40;16.30;;;;;;;-2.50;100.00;100135.09;4895786;29;20498;-67
2021/12/15 12:13:21;;;;;;;49.45;16.33;;;;;;;-2.52;100.00;100142.25;4867503;29;20060;-67
2021/12/15 12:15:52;;;;;;;51.78;17.70;;;;;;;-2.63;100.00;100112.66;4879261;29;20540;-66
2021/12/15 12:18:20;;;;;;;41.03;12.98;;;;;;;-2.58;100.00;100131.88;4863959;29;20469;-67
2021/12/15 12:20:52;;;;;;;41.58;13.98;;;;;;;-2.63;100.00;100123.22;4849285;29;20068;-66
2021/12/15 12:23:22;;;;;;;40.17;13.32;;;;;;;-2.56;100.00;100141.50;4881563;29;20203;-66